sensor_id;sensor_type;location;lat;lon;timestamp;P1;durP1;ratioP1;P2;durP2;ratioP2
12511;SDS011;6321;53.798;10.382;2023-02-28T00:00:35;7.30;;;5.40;;
12511;SDS011;6321;53.798;10.382;2023-02-28T00:03:01;10.60;;;6.10;;
12511;SDS011;6321;53.798;10.382;2023-02-28T00:05:28;7.07;;;5.50;;
12511;SDS011;6321;53.798;10.382;2023-02-28T00:07:54;9.57;;;6.13;;
12511;SDS011;6321;53.798;10.382;2023-02-28T00:10:24;7.00;;;5.13;;
12511;SDS011;6321;53.798;10.382;2023-02-28T00:12:51;11.23;;;6.07;;
12511;SDS011;6321;53.798;10.382;2023-02-28T00:15:17;10.17;;;6.03;;
12511;SDS011;6321;53.798;10.382;2023-02-28T00:17:44;12.43;;;6.17;;
12511;SDS011;6321;53.798;10.382;2023-02-28T00:20:10;12.90;;;6.73;;
12511;SDS011;6321;53.798;10.382;2023-02-28T00:22:44;10.47;;;6.23;;
12511;SDS011;6321;53.798;10.382;2023-02-28T00:25:10;7.90;;;5.87;;
12511;SDS011;6321;53.798;10.382;2023-02-28T00:27:37;7.73;;;5.60;;
12511;SDS011;6321;53.798;10.382;2023-02-28T00:30:04;9.63;;;6.00;;
12511;SDS011;6321;53.798;10.382;2023-02-28T00:32:30;8.87;;;5.67;;
12511;SDS011;6321;53.798;10.382;2023-02-28T00:34:56;9.27;;;5.53;;
12511;SDS011;6321;53.798;10.382;2023-02-28T00:37:22;6.70;;;5.10;;
12511;SDS011;6321;53.798;10.382;2023-02-28T00:39:48;6.47;;;5.73;;
12511;SDS011;6321;53.798;10.382;2023-02-28T00:42:14;8.43;;;5.60;;
12511;SDS011;6321;53.798;10.382;2023-02-28T00:44:40;9.60;;;5.33;;
12511;SDS011;6321;53.798;10.382;2023-02-28T00:47:06;8.77;;;5.70;;
12511;SDS011;6321;53.798;10.382;2023-02-28T00:49:32;9.87;;;5.90;;
12511;SDS011;6321;53.798;10.382;2023-02-28T00:51:58;11.00;;;5.70;;
12511;SDS011;6321;53.798;10.382;2023-02-28T00:54:24;6.37;;;4.97;;
12511;SDS011;6321;53.798;10.382;2023-02-28T00:56:50;12.23;;;6.10;;
12511;SDS011;6321;53.798;10.382;2023-02-28T00:59:17;11.83;;;6.13;;
12511;SDS011;6321;53.798;10.382;2023-02-28T01:01:43;7.67;;;4.83;;
12511;SDS011;6321;53.798;10.382;2023-02-28T01:04:10;9.43;;;5.90;;
12511;SDS011;6321;53.798;10.382;2023-02-28T01:06:36;10.57;;;5.90;;
12511;SDS011;6321;53.798;10.382;2023-02-28T01:09:02;8.77;;;5.80;;
12511;SDS011;6321;53.798;10.382;2023-02-28T01:11:28;8.03;;;5.37;;
12511;SDS011;6321;53.798;10.382;2023-02-28T01:13:54;6.40;;;4.90;;
12511;SDS011;6321;53.798;10.382;2023-02-28T01:16:20;9.27;;;5.53;;
12511;SDS011;6321;53.798;10.382;2023-02-28T01:18:46;5.80;;;5.00;;
12511;SDS011;6321;53.798;10.382;2023-02-28T01:21:13;7.97;;;5.17;;
12511;SDS011;6321;53.798;10.382;2023-02-28T01:23:40;13.37;;;6.00;;
12511;SDS011;6321;53.798;10.382;2023-02-28T01:26:07;5.70;;;5.00;;
12511;SDS011;6321;53.798;10.382;2023-02-28T01:28:33;6.47;;;4.87;;
12511;SDS011;6321;53.798;10.382;2023-02-28T01:30:59;9.63;;;6.10;;
12511;SDS011;6321;53.798;10.382;2023-02-28T01:33:25;8.73;;;5.63;;
12511;SDS011;6321;53.798;10.382;2023-02-28T01:36:01;9.60;;;6.10;;
12511;SDS011;6321;53.798;10.382;2023-02-28T01:38:27;11.60;;;6.37;;
12511;SDS011;6321;53.798;10.382;2023-02-28T01:40:53;8.50;;;6.63;;
12511;SDS011;6321;53.798;10.382;2023-02-28T01:43:21;11.73;;;6.27;;
12511;SDS011;6321;53.798;10.382;2023-02-28T01:45:47;10.03;;;6.57;;
12511;SDS011;6321;53.798;10.382;2023-02-28T01:48:13;10.73;;;6.73;;
12511;SDS011;6321;53.798;10.382;2023-02-28T01:50:39;11.07;;;6.30;;
12511;SDS011;6321;53.798;10.382;2023-02-28T01:53:07;9.57;;;6.03;;
12511;SDS011;6321;53.798;10.382;2023-02-28T01:55:35;7.87;;;6.03;;
12511;SDS011;6321;53.798;10.382;2023-02-28T01:58:02;9.97;;;6.37;;
12511;SDS011;6321;53.798;10.382;2023-02-28T02:00:29;8.10;;;5.90;;
12511;SDS011;6321;53.798;10.382;2023-02-28T02:02:59;9.93;;;5.50;;
12511;SDS011;6321;53.798;10.382;2023-02-28T02:05:27;8.33;;;5.70;;
12511;SDS011;6321;53.798;10.382;2023-02-28T02:07:56;9.13;;;6.23;;
12511;SDS011;6321;53.798;10.382;2023-02-28T02:18:04;9.23;;;6.47;;
12511;SDS011;6321;53.798;10.382;2023-02-28T02:26:24;11.43;;;6.40;;
12511;SDS011;6321;53.798;10.382;2023-02-28T02:31:52;9.47;;;6.67;;
12511;SDS011;6321;53.798;10.382;2023-02-28T02:37:03;11.03;;;7.20;;
12511;SDS011;6321;53.798;10.382;2023-02-28T02:39:44;8.37;;;6.47;;
12511;SDS011;6321;53.798;10.382;2023-02-28T02:42:20;8.27;;;6.10;;
12511;SDS011;6321;53.798;10.382;2023-02-28T02:44:48;10.67;;;7.00;;
12511;SDS011;6321;53.798;10.382;2023-02-28T02:47:18;9.40;;;6.33;;
12511;SDS011;6321;53.798;10.382;2023-02-28T02:49:46;8.37;;;6.60;;
12511;SDS011;6321;53.798;10.382;2023-02-28T02:52:14;10.50;;;6.53;;
12511;SDS011;6321;53.798;10.382;2023-02-28T02:54:41;9.60;;;6.00;;
12511;SDS011;6321;53.798;10.382;2023-02-28T02:57:17;8.70;;;6.60;;
12511;SDS011;6321;53.798;10.382;2023-02-28T02:59:46;12.30;;;6.67;;
12511;SDS011;6321;53.798;10.382;2023-02-28T03:02:14;9.47;;;6.60;;
12511;SDS011;6321;53.798;10.382;2023-02-28T03:04:53;9.93;;;6.77;;
12511;SDS011;6321;53.798;10.382;2023-02-28T03:07:25;8.90;;;6.03;;
12511;SDS011;6321;53.798;10.382;2023-02-28T03:09:55;11.37;;;6.20;;
12511;SDS011;6321;53.798;10.382;2023-02-28T03:12:22;10.93;;;6.50;;
12511;SDS011;6321;53.798;10.382;2023-02-28T03:14:51;9.27;;;6.13;;
12511;SDS011;6321;53.798;10.382;2023-02-28T03:25:04;7.97;;;6.20;;
12511;SDS011;6321;53.798;10.382;2023-02-28T03:27:52;8.23;;;6.10;;
12511;SDS011;6321;53.798;10.382;2023-02-28T03:30:24;13.63;;;6.30;;
12511;SDS011;6321;53.798;10.382;2023-02-28T03:35:21;9.63;;;6.17;;
12511;SDS011;6321;53.798;10.382;2023-02-28T03:37:53;11.33;;;6.40;;
12511;SDS011;6321;53.798;10.382;2023-02-28T03:40:23;9.30;;;5.77;;
12511;SDS011;6321;53.798;10.382;2023-02-28T03:42:51;9.57;;;6.00;;
12511;SDS011;6321;53.798;10.382;2023-02-28T03:45:21;10.53;;;6.50;;
12511;SDS011;6321;53.798;10.382;2023-02-28T03:47:52;10.57;;;6.33;;
12511;SDS011;6321;53.798;10.382;2023-02-28T03:50:26;8.10;;;6.07;;
12511;SDS011;6321;53.798;10.382;2023-02-28T03:52:58;8.53;;;6.30;;
12511;SDS011;6321;53.798;10.382;2023-02-28T03:55:26;11.20;;;6.37;;
12511;SDS011;6321;53.798;10.382;2023-02-28T03:57:56;10.63;;;7.40;;
12511;SDS011;6321;53.798;10.382;2023-02-28T04:00:25;9.57;;;6.97;;
12511;SDS011;6321;53.798;10.382;2023-02-28T04:02:53;10.27;;;6.97;;
12511;SDS011;6321;53.798;10.382;2023-02-28T04:05:20;9.83;;;6.57;;
12511;SDS011;6321;53.798;10.382;2023-02-28T04:07:46;10.07;;;6.03;;
12511;SDS011;6321;53.798;10.382;2023-02-28T04:10:13;8.00;;;5.80;;
12511;SDS011;6321;53.798;10.382;2023-02-28T04:12:40;10.33;;;6.20;;
12511;SDS011;6321;53.798;10.382;2023-02-28T04:15:06;9.10;;;6.20;;
12511;SDS011;6321;53.798;10.382;2023-02-28T04:17:32;7.50;;;6.17;;
12511;SDS011;6321;53.798;10.382;2023-02-28T04:19:58;10.70;;;5.87;;
12511;SDS011;6321;53.798;10.382;2023-02-28T04:22:24;9.47;;;6.13;;
12511;SDS011;6321;53.798;10.382;2023-02-28T04:24:53;8.93;;;6.40;;
12511;SDS011;6321;53.798;10.382;2023-02-28T04:27:19;9.77;;;6.73;;
12511;SDS011;6321;53.798;10.382;2023-02-28T04:29:45;8.47;;;6.20;;
12511;SDS011;6321;53.798;10.382;2023-02-28T04:32:11;12.00;;;6.17;;
12511;SDS011;6321;53.798;10.382;2023-02-28T04:34:37;8.70;;;6.10;;
12511;SDS011;6321;53.798;10.382;2023-02-28T04:37:03;8.13;;;5.17;;
12511;SDS011;6321;53.798;10.382;2023-02-28T04:39:29;9.40;;;5.97;;
12511;SDS011;6321;53.798;10.382;2023-02-28T04:41:55;7.93;;;5.33;;
12511;SDS011;6321;53.798;10.382;2023-02-28T04:44:22;11.67;;;6.07;;
12511;SDS011;6321;53.798;10.382;2023-02-28T04:46:48;8.37;;;5.77;;
12511;SDS011;6321;53.798;10.382;2023-02-28T04:49:15;8.70;;;5.17;;
12511;SDS011;6321;53.798;10.382;2023-02-28T04:51:41;9.50;;;5.83;;
12511;SDS011;6321;53.798;10.382;2023-02-28T04:54:07;11.33;;;5.57;;
12511;SDS011;6321;53.798;10.382;2023-02-28T04:56:33;8.77;;;6.20;;
12511;SDS011;6321;53.798;10.382;2023-02-28T04:58:59;8.53;;;5.47;;
12511;SDS011;6321;53.798;10.382;2023-02-28T05:01:26;7.10;;;4.93;;
12511;SDS011;6321;53.798;10.382;2023-02-28T05:03:53;6.17;;;4.60;;
12511;SDS011;6321;53.798;10.382;2023-02-28T05:06:20;6.57;;;4.83;;
12511;SDS011;6321;53.798;10.382;2023-02-28T05:08:46;7.60;;;5.07;;
12511;SDS011;6321;53.798;10.382;2023-02-28T05:11:14;7.70;;;5.10;;
12511;SDS011;6321;53.798;10.382;2023-02-28T05:13:40;6.63;;;4.93;;
12511;SDS011;6321;53.798;10.382;2023-02-28T05:16:06;8.30;;;4.70;;
12511;SDS011;6321;53.798;10.382;2023-02-28T05:18:32;7.97;;;4.63;;
12511;SDS011;6321;53.798;10.382;2023-02-28T05:20:59;6.60;;;4.93;;
12511;SDS011;6321;53.798;10.382;2023-02-28T05:23:27;6.90;;;4.60;;
12511;SDS011;6321;53.798;10.382;2023-02-28T05:25:53;10.00;;;5.47;;
12511;SDS011;6321;53.798;10.382;2023-02-28T05:28:19;8.23;;;4.63;;
12511;SDS011;6321;53.798;10.382;2023-02-28T05:30:45;7.03;;;4.63;;
12511;SDS011;6321;53.798;10.382;2023-02-28T05:33:12;8.30;;;4.80;;
12511;SDS011;6321;53.798;10.382;2023-02-28T05:35:38;9.37;;;4.93;;
12511;SDS011;6321;53.798;10.382;2023-02-28T05:38:04;6.93;;;5.20;;
12511;SDS011;6321;53.798;10.382;2023-02-28T05:40:30;6.67;;;4.77;;
12511;SDS011;6321;53.798;10.382;2023-02-28T05:42:56;8.23;;;4.43;;
12511;SDS011;6321;53.798;10.382;2023-02-28T05:45:22;8.63;;;5.13;;
12511;SDS011;6321;53.798;10.382;2023-02-28T05:47:48;7.50;;;5.47;;
12511;SDS011;6321;53.798;10.382;2023-02-28T05:50:14;7.70;;;4.87;;
12511;SDS011;6321;53.798;10.382;2023-02-28T05:52:40;8.03;;;5.00;;
12511;SDS011;6321;53.798;10.382;2023-02-28T05:55:06;7.60;;;5.27;;
12511;SDS011;6321;53.798;10.382;2023-02-28T05:57:33;7.57;;;4.77;;
12511;SDS011;6321;53.798;10.382;2023-02-28T05:59:58;5.77;;;4.37;;
12511;SDS011;6321;53.798;10.382;2023-02-28T06:02:24;6.30;;;4.37;;
12511;SDS011;6321;53.798;10.382;2023-02-28T06:04:50;7.17;;;4.87;;
12511;SDS011;6321;53.798;10.382;2023-02-28T06:07:16;7.47;;;4.53;;
12511;SDS011;6321;53.798;10.382;2023-02-28T06:09:42;8.60;;;5.33;;
12511;SDS011;6321;53.798;10.382;2023-02-28T06:12:09;7.73;;;4.73;;
12511;SDS011;6321;53.798;10.382;2023-02-28T06:14:35;8.20;;;5.23;;
12511;SDS011;6321;53.798;10.382;2023-02-28T06:17:02;8.57;;;5.23;;
12511;SDS011;6321;53.798;10.382;2023-02-28T06:19:28;7.40;;;4.87;;
12511;SDS011;6321;53.798;10.382;2023-02-28T06:21:55;11.50;;;5.57;;
12511;SDS011;6321;53.798;10.382;2023-02-28T06:24:22;11.30;;;5.10;;
12511;SDS011;6321;53.798;10.382;2023-02-28T06:26:49;9.37;;;5.67;;
12511;SDS011;6321;53.798;10.382;2023-02-28T06:29:15;14.07;;;5.40;;
12511;SDS011;6321;53.798;10.382;2023-02-28T06:31:41;12.67;;;5.90;;
12511;SDS011;6321;53.798;10.382;2023-02-28T06:34:08;9.43;;;5.47;;
12511;SDS011;6321;53.798;10.382;2023-02-28T06:36:36;7.67;;;5.23;;
12511;SDS011;6321;53.798;10.382;2023-02-28T06:39:02;7.20;;;5.60;;
12511;SDS011;6321;53.798;10.382;2023-02-28T06:41:28;9.50;;;5.10;;
12511;SDS011;6321;53.798;10.382;2023-02-28T06:43:54;9.57;;;5.30;;
12511;SDS011;6321;53.798;10.382;2023-02-28T06:46:20;9.10;;;5.10;;
12511;SDS011;6321;53.798;10.382;2023-02-28T06:48:46;10.60;;;5.20;;
12511;SDS011;6321;53.798;10.382;2023-02-28T06:51:13;9.67;;;5.10;;
12511;SDS011;6321;53.798;10.382;2023-02-28T06:53:40;9.07;;;5.13;;
12511;SDS011;6321;53.798;10.382;2023-02-28T06:56:10;12.23;;;5.30;;
12511;SDS011;6321;53.798;10.382;2023-02-28T06:58:36;13.63;;;4.97;;
12511;SDS011;6321;53.798;10.382;2023-02-28T07:01:03;6.23;;;4.40;;
12511;SDS011;6321;53.798;10.382;2023-02-28T07:03:30;8.77;;;5.33;;
12511;SDS011;6321;53.798;10.382;2023-02-28T07:05:56;11.13;;;5.00;;
12511;SDS011;6321;53.798;10.382;2023-02-28T07:08:25;12.00;;;5.23;;
12511;SDS011;6321;53.798;10.382;2023-02-28T07:10:52;8.00;;;5.13;;
12511;SDS011;6321;53.798;10.382;2023-02-28T07:13:18;9.03;;;6.20;;
12511;SDS011;6321;53.798;10.382;2023-02-28T07:15:44;10.97;;;5.93;;
12511;SDS011;6321;53.798;10.382;2023-02-28T07:18:10;18.33;;;6.43;;
12511;SDS011;6321;53.798;10.382;2023-02-28T07:20:36;12.07;;;6.73;;
12511;SDS011;6321;53.798;10.382;2023-02-28T07:23:02;15.13;;;6.63;;
12511;SDS011;6321;53.798;10.382;2023-02-28T07:25:28;12.03;;;6.97;;
12511;SDS011;6321;53.798;10.382;2023-02-28T07:27:54;19.27;;;7.40;;
12511;SDS011;6321;53.798;10.382;2023-02-28T07:30:21;16.60;;;8.20;;
12511;SDS011;6321;53.798;10.382;2023-02-28T07:32:47;13.97;;;8.60;;
12511;SDS011;6321;53.798;10.382;2023-02-28T07:35:13;18.33;;;9.23;;
12511;SDS011;6321;53.798;10.382;2023-02-28T07:37:40;16.97;;;9.57;;
12511;SDS011;6321;53.798;10.382;2023-02-28T07:40:07;19.73;;;9.77;;
12511;SDS011;6321;53.798;10.382;2023-02-28T07:42:36;17.37;;;10.70;;
12511;SDS011;6321;53.798;10.382;2023-02-28T07:45:02;21.30;;;10.73;;
12511;SDS011;6321;53.798;10.382;2023-02-28T07:47:29;18.83;;;10.73;;
12511;SDS011;6321;53.798;10.382;2023-02-28T07:49:55;15.83;;;10.17;;
12511;SDS011;6321;53.798;10.382;2023-02-28T07:52:21;17.50;;;9.97;;
12511;SDS011;6321;53.798;10.382;2023-02-28T07:54:48;15.10;;;9.53;;
12511;SDS011;6321;53.798;10.382;2023-02-28T07:57:14;15.43;;;9.17;;
12511;SDS011;6321;53.798;10.382;2023-02-28T07:59:40;16.20;;;9.53;;
12511;SDS011;6321;53.798;10.382;2023-02-28T08:02:06;13.43;;;8.80;;
12511;SDS011;6321;53.798;10.382;2023-02-28T08:04:32;12.57;;;7.73;;
12511;SDS011;6321;53.798;10.382;2023-02-28T08:06:58;11.63;;;7.30;;
12511;SDS011;6321;53.798;10.382;2023-02-28T08:09:24;13.10;;;6.97;;
12511;SDS011;6321;53.798;10.382;2023-02-28T08:11:50;6.23;;;5.27;;
12511;SDS011;6321;53.798;10.382;2023-02-28T08:14:16;6.17;;;4.40;;
12511;SDS011;6321;53.798;10.382;2023-02-28T08:16:42;9.90;;;4.87;;
12511;SDS011;6321;53.798;10.382;2023-02-28T08:19:08;6.60;;;5.00;;
12511;SDS011;6321;53.798;10.382;2023-02-28T08:21:34;7.67;;;4.97;;
12511;SDS011;6321;53.798;10.382;2023-02-28T08:24:00;12.33;;;4.80;;
12511;SDS011;6321;53.798;10.382;2023-02-28T08:26:26;9.13;;;4.93;;
12511;SDS011;6321;53.798;10.382;2023-02-28T08:28:52;8.10;;;4.80;;
12511;SDS011;6321;53.798;10.382;2023-02-28T08:31:18;6.20;;;4.60;;
12511;SDS011;6321;53.798;10.382;2023-02-28T08:33:44;7.53;;;4.37;;
12511;SDS011;6321;53.798;10.382;2023-02-28T08:36:11;6.57;;;4.33;;
12511;SDS011;6321;53.798;10.382;2023-02-28T08:38:37;5.70;;;3.83;;
12511;SDS011;6321;53.798;10.382;2023-02-28T08:41:04;7.53;;;4.17;;
12511;SDS011;6321;53.798;10.382;2023-02-28T08:43:32;5.17;;;3.83;;
12511;SDS011;6321;53.798;10.382;2023-02-28T08:45:58;5.03;;;3.57;;
12511;SDS011;6321;53.798;10.382;2023-02-28T08:48:24;4.97;;;4.07;;
12511;SDS011;6321;53.798;10.382;2023-02-28T08:50:57;7.07;;;3.77;;
12511;SDS011;6321;53.798;10.382;2023-02-28T08:53:24;6.83;;;4.17;;
12511;SDS011;6321;53.798;10.382;2023-02-28T08:56:01;4.50;;;3.83;;
12511;SDS011;6321;53.798;10.382;2023-02-28T08:58:28;5.17;;;4.00;;
12511;SDS011;6321;53.798;10.382;2023-02-28T09:00:54;7.10;;;4.00;;
12511;SDS011;6321;53.798;10.382;2023-02-28T09:03:20;4.00;;;3.10;;
12511;SDS011;6321;53.798;10.382;2023-02-28T09:05:54;6.77;;;3.27;;
12511;SDS011;6321;53.798;10.382;2023-02-28T09:08:20;6.97;;;3.77;;
12511;SDS011;6321;53.798;10.382;2023-02-28T09:10:46;4.97;;;3.40;;
12511;SDS011;6321;53.798;10.382;2023-02-28T09:13:12;6.10;;;3.57;;
12511;SDS011;6321;53.798;10.382;2023-02-28T09:15:38;4.00;;;2.90;;
12511;SDS011;6321;53.798;10.382;2023-02-28T09:18:04;5.97;;;3.53;;
12511;SDS011;6321;53.798;10.382;2023-02-28T09:20:30;8.03;;;3.63;;
12511;SDS011;6321;53.798;10.382;2023-02-28T09:22:56;3.87;;;2.90;;
12511;SDS011;6321;53.798;10.382;2023-02-28T09:25:22;5.40;;;3.90;;
12511;SDS011;6321;53.798;10.382;2023-02-28T09:27:47;4.73;;;3.23;;
12511;SDS011;6321;53.798;10.382;2023-02-28T09:30:14;5.37;;;3.63;;
12511;SDS011;6321;53.798;10.382;2023-02-28T09:32:40;4.93;;;3.50;;
12511;SDS011;6321;53.798;10.382;2023-02-28T09:35:06;3.80;;;3.13;;
12511;SDS011;6321;53.798;10.382;2023-02-28T09:37:38;5.63;;;3.67;;
12511;SDS011;6321;53.798;10.382;2023-02-28T09:40:04;6.37;;;3.50;;
12511;SDS011;6321;53.798;10.382;2023-02-28T09:42:31;6.87;;;3.70;;
12511;SDS011;6321;53.798;10.382;2023-02-28T09:44:58;5.57;;;3.27;;
12511;SDS011;6321;53.798;10.382;2023-02-28T09:47:27;5.90;;;3.40;;
12511;SDS011;6321;53.798;10.382;2023-02-28T09:49:54;5.73;;;3.80;;
12511;SDS011;6321;53.798;10.382;2023-02-28T09:52:23;3.67;;;2.90;;
12511;SDS011;6321;53.798;10.382;2023-02-28T09:54:52;5.67;;;2.97;;
12511;SDS011;6321;53.798;10.382;2023-02-28T09:57:31;4.30;;;2.60;;
12511;SDS011;6321;53.798;10.382;2023-02-28T10:05:08;3.47;;;2.37;;
12511;SDS011;6321;53.798;10.382;2023-02-28T10:10:17;3.90;;;2.27;;
12511;SDS011;6321;53.798;10.382;2023-02-28T10:12:46;2.67;;;2.00;;
12511;SDS011;6321;53.798;10.382;2023-02-28T10:15:14;3.13;;;2.53;;
12511;SDS011;6321;53.798;10.382;2023-02-28T10:17:41;3.90;;;1.90;;
12511;SDS011;6321;53.798;10.382;2023-02-28T10:20:11;5.20;;;2.33;;
12511;SDS011;6321;53.798;10.382;2023-02-28T10:22:58;4.10;;;2.50;;
12511;SDS011;6321;53.798;10.382;2023-02-28T10:25:26;4.43;;;2.40;;
12511;SDS011;6321;53.798;10.382;2023-02-28T10:27:53;4.00;;;2.27;;
12511;SDS011;6321;53.798;10.382;2023-02-28T10:30:19;3.67;;;2.60;;
12511;SDS011;6321;53.798;10.382;2023-02-28T10:32:47;5.37;;;2.07;;
12511;SDS011;6321;53.798;10.382;2023-02-28T10:35:16;3.47;;;2.20;;
12511;SDS011;6321;53.798;10.382;2023-02-28T10:37:43;2.37;;;2.00;;
12511;SDS011;6321;53.798;10.382;2023-02-28T10:43:32;2.80;;;2.23;;
12511;SDS011;6321;53.798;10.382;2023-02-28T10:45:34;2.97;;;1.87;;
12511;SDS011;6321;53.798;10.382;2023-02-28T10:48:26;3.40;;;2.00;;
12511;SDS011;6321;53.798;10.382;2023-02-28T10:50:53;4.07;;;1.90;;
12511;SDS011;6321;53.798;10.382;2023-02-28T10:56:05;4.73;;;2.17;;
12511;SDS011;6321;53.798;10.382;2023-02-28T10:58:42;3.00;;;1.63;;
12511;SDS011;6321;53.798;10.382;2023-02-28T11:01:14;6.17;;;2.03;;
12511;SDS011;6321;53.798;10.382;2023-02-28T11:03:40;3.07;;;1.83;;
12511;SDS011;6321;53.798;10.382;2023-02-28T11:06:07;3.90;;;2.00;;
12511;SDS011;6321;53.798;10.382;2023-02-28T11:08:34;2.87;;;1.90;;
12511;SDS011;6321;53.798;10.382;2023-02-28T11:11:09;4.80;;;2.40;;
12511;SDS011;6321;53.798;10.382;2023-02-28T11:13:35;5.10;;;1.70;;
12511;SDS011;6321;53.798;10.382;2023-02-28T11:16:10;2.20;;;1.50;;
12511;SDS011;6321;53.798;10.382;2023-02-28T11:18:53;3.80;;;2.03;;
12511;SDS011;6321;53.798;10.382;2023-02-28T11:21:21;3.20;;;1.80;;
12511;SDS011;6321;53.798;10.382;2023-02-28T11:23:49;3.93;;;2.13;;
12511;SDS011;6321;53.798;10.382;2023-02-28T11:26:17;2.60;;;2.27;;
12511;SDS011;6321;53.798;10.382;2023-02-28T11:29:09;3.27;;;2.20;;
12511;SDS011;6321;53.798;10.382;2023-02-28T11:31:35;5.50;;;2.07;;
12511;SDS011;6321;53.798;10.382;2023-02-28T11:34:07;2.23;;;2.00;;
12511;SDS011;6321;53.798;10.382;2023-02-28T11:36:47;4.23;;;1.80;;
12511;SDS011;6321;53.798;10.382;2023-02-28T11:39:13;3.03;;;1.70;;
12511;SDS011;6321;53.798;10.382;2023-02-28T11:41:49;3.33;;;2.07;;
12511;SDS011;6321;53.798;10.382;2023-02-28T11:46:59;5.10;;;2.00;;
12511;SDS011;6321;53.798;10.382;2023-02-28T11:49:35;3.10;;;1.60;;
12511;SDS011;6321;53.798;10.382;2023-02-28T11:57:35;2.13;;;1.50;;
12511;SDS011;6321;53.798;10.382;2023-02-28T12:02:52;1.60;;;1.50;;
12511;SDS011;6321;53.798;10.382;2023-02-28T12:10:29;2.93;;;2.17;;
12511;SDS011;6321;53.798;10.382;2023-02-28T12:13:00;2.47;;;1.80;;
12511;SDS011;6321;53.798;10.382;2023-02-28T12:15:33;2.27;;;1.60;;
12511;SDS011;6321;53.798;10.382;2023-02-28T12:18:09;2.27;;;1.70;;
12511;SDS011;6321;53.798;10.382;2023-02-28T12:20:46;3.33;;;1.70;;
12511;SDS011;6321;53.798;10.382;2023-02-28T12:23:40;2.47;;;2.17;;
12511;SDS011;6321;53.798;10.382;2023-02-28T12:26:15;2.93;;;2.07;;
12511;SDS011;6321;53.798;10.382;2023-02-28T12:28:57;3.60;;;2.00;;
12511;SDS011;6321;53.798;10.382;2023-02-28T12:31:27;2.50;;;2.00;;
12511;SDS011;6321;53.798;10.382;2023-02-28T12:33:56;3.43;;;1.97;;
12511;SDS011;6321;53.798;10.382;2023-02-28T12:36:25;4.57;;;2.00;;
12511;SDS011;6321;53.798;10.382;2023-02-28T12:38:54;2.50;;;1.93;;
12511;SDS011;6321;53.798;10.382;2023-02-28T12:43:55;3.90;;;2.33;;
12511;SDS011;6321;53.798;10.382;2023-02-28T12:46:36;3.10;;;1.93;;
12511;SDS011;6321;53.798;10.382;2023-02-28T12:49:05;3.60;;;2.33;;
12511;SDS011;6321;53.798;10.382;2023-02-28T12:51:32;2.60;;;1.83;;
12511;SDS011;6321;53.798;10.382;2023-02-28T12:54:10;3.27;;;2.03;;
12511;SDS011;6321;53.798;10.382;2023-02-28T12:56:41;4.57;;;2.50;;
12511;SDS011;6321;53.798;10.382;2023-02-28T12:59:14;3.37;;;2.10;;
12511;SDS011;6321;53.798;10.382;2023-02-28T13:01:46;2.70;;;1.90;;
12511;SDS011;6321;53.798;10.382;2023-02-28T13:04:22;3.20;;;1.83;;
12511;SDS011;6321;53.798;10.382;2023-02-28T13:09:37;3.07;;;2.20;;
12511;SDS011;6321;53.798;10.382;2023-02-28T13:12:12;2.20;;;2.00;;
12511;SDS011;6321;53.798;10.382;2023-02-28T13:14:38;2.73;;;2.07;;
12511;SDS011;6321;53.798;10.382;2023-02-28T13:19:43;3.57;;;2.00;;
12511;SDS011;6321;53.798;10.382;2023-02-28T13:22:17;2.20;;;2.00;;
12511;SDS011;6321;53.798;10.382;2023-02-28T13:24:50;2.13;;;1.90;;
12511;SDS011;6321;53.798;10.382;2023-02-28T13:29:52;3.83;;;1.73;;
12511;SDS011;6321;53.798;10.382;2023-02-28T13:32:39;2.87;;;2.17;;
12511;SDS011;6321;53.798;10.382;2023-02-28T13:39:57;2.60;;;2.00;;
12511;SDS011;6321;53.798;10.382;2023-02-28T13:47:44;3.93;;;2.20;;
12511;SDS011;6321;53.798;10.382;2023-02-28T13:55:28;2.67;;;1.90;;
12511;SDS011;6321;53.798;10.382;2023-02-28T14:00:56;2.27;;;1.70;;
12511;SDS011;6321;53.798;10.382;2023-02-28T14:08:43;3.03;;;2.10;;
12511;SDS011;6321;53.798;10.382;2023-02-28T14:11:23;4.87;;;2.33;;
12511;SDS011;6321;53.798;10.382;2023-02-28T14:13:49;4.73;;;2.30;;
12511;SDS011;6321;53.798;10.382;2023-02-28T14:16:23;2.40;;;2.20;;
12511;SDS011;6321;53.798;10.382;2023-02-28T14:18:55;2.57;;;2.27;;
12511;SDS011;6321;53.798;10.382;2023-02-28T14:21:26;5.23;;;2.50;;
12511;SDS011;6321;53.798;10.382;2023-02-28T14:29:27;4.83;;;3.23;;
12511;SDS011;6321;53.798;10.382;2023-02-28T14:32:03;4.33;;;3.20;;
12511;SDS011;6321;53.798;10.382;2023-02-28T14:34:37;5.03;;;3.40;;
12511;SDS011;6321;53.798;10.382;2023-02-28T14:37:09;5.47;;;3.87;;
12511;SDS011;6321;53.798;10.382;2023-02-28T14:39:36;6.67;;;3.63;;
12511;SDS011;6321;53.798;10.382;2023-02-28T14:42:24;5.50;;;3.10;;
12511;SDS011;6321;53.798;10.382;2023-02-28T14:44:53;5.73;;;3.10;;
12511;SDS011;6321;53.798;10.382;2023-02-28T14:47:21;4.20;;;3.27;;
12511;SDS011;6321;53.798;10.382;2023-02-28T14:49:49;4.57;;;3.30;;
12511;SDS011;6321;53.798;10.382;2023-02-28T14:52:17;4.73;;;3.30;;
12511;SDS011;6321;53.798;10.382;2023-02-28T14:54:44;6.63;;;3.20;;
12511;SDS011;6321;53.798;10.382;2023-02-28T14:57:21;4.60;;;3.87;;
12511;SDS011;6321;53.798;10.382;2023-02-28T14:59:56;4.80;;;3.60;;
12511;SDS011;6321;53.798;10.382;2023-02-28T15:02:23;5.17;;;3.73;;
12511;SDS011;6321;53.798;10.382;2023-02-28T15:04:56;5.60;;;3.63;;
12511;SDS011;6321;53.798;10.382;2023-02-28T15:07:22;5.27;;;3.77;;
12511;SDS011;6321;53.798;10.382;2023-02-28T15:10:06;7.30;;;3.70;;
12511;SDS011;6321;53.798;10.382;2023-02-28T15:12:32;4.97;;;3.60;;
12511;SDS011;6321;53.798;10.382;2023-02-28T15:14:58;4.70;;;3.53;;
12511;SDS011;6321;53.798;10.382;2023-02-28T15:17:24;4.90;;;3.40;;
12511;SDS011;6321;53.798;10.382;2023-02-28T15:19:51;5.60;;;3.40;;
12511;SDS011;6321;53.798;10.382;2023-02-28T15:22:19;6.63;;;3.70;;
12511;SDS011;6321;53.798;10.382;2023-02-28T15:24:47;5.33;;;3.10;;
12511;SDS011;6321;53.798;10.382;2023-02-28T15:27:20;4.17;;;2.77;;
12511;SDS011;6321;53.798;10.382;2023-02-28T15:29:50;4.60;;;3.50;;
12511;SDS011;6321;53.798;10.382;2023-02-28T15:34:52;5.40;;;3.43;;
12511;SDS011;6321;53.798;10.382;2023-02-28T15:37:29;4.53;;;3.20;;
12511;SDS011;6321;53.798;10.382;2023-02-28T15:39:56;5.00;;;3.20;;
12511;SDS011;6321;53.798;10.382;2023-02-28T15:42:27;5.53;;;3.30;;
12511;SDS011;6321;53.798;10.382;2023-02-28T15:44:53;4.80;;;3.20;;
12511;SDS011;6321;53.798;10.382;2023-02-28T15:47:20;5.83;;;3.60;;
12511;SDS011;6321;53.798;10.382;2023-02-28T15:49:48;5.27;;;3.73;;
12511;SDS011;6321;53.798;10.382;2023-02-28T15:52:16;3.13;;;2.83;;
12511;SDS011;6321;53.798;10.382;2023-02-28T15:54:42;5.33;;;3.20;;
12511;SDS011;6321;53.798;10.382;2023-02-28T15:57:22;3.70;;;3.13;;
12511;SDS011;6321;53.798;10.382;2023-02-28T15:59:55;6.03;;;3.50;;
12511;SDS011;6321;53.798;10.382;2023-02-28T16:02:23;4.70;;;2.80;;
12511;SDS011;6321;53.798;10.382;2023-02-28T16:07:23;3.67;;;2.93;;
12511;SDS011;6321;53.798;10.382;2023-02-28T16:09:50;5.40;;;3.40;;
12511;SDS011;6321;53.798;10.382;2023-02-28T16:12:16;5.77;;;3.17;;
12511;SDS011;6321;53.798;10.382;2023-02-28T16:14:42;4.30;;;2.90;;
12511;SDS011;6321;53.798;10.382;2023-02-28T16:17:18;3.63;;;3.00;;
12511;SDS011;6321;53.798;10.382;2023-02-28T16:19:45;5.43;;;3.30;;
12511;SDS011;6321;53.798;10.382;2023-02-28T16:22:11;5.93;;;3.87;;
12511;SDS011;6321;53.798;10.382;2023-02-28T16:24:37;6.40;;;2.67;;
12511;SDS011;6321;53.798;10.382;2023-02-28T16:27:04;4.60;;;2.90;;
12511;SDS011;6321;53.798;10.382;2023-02-28T16:29:31;3.03;;;2.73;;
12511;SDS011;6321;53.798;10.382;2023-02-28T16:31:57;3.60;;;3.00;;
12511;SDS011;6321;53.798;10.382;2023-02-28T16:34:24;5.40;;;2.97;;
12511;SDS011;6321;53.798;10.382;2023-02-28T16:36:50;4.53;;;2.97;;